MLI weather

Quad City International Airport
Moline, Illinois, United States

Public forecast

Using degrees Fahrenheit for public forecast. Weather courtesy of forecast.io.

Current aviation weather report (METAR) for Quad City International Airport

Retrieved 2019/10/17 01:52 UTC (25 minutes ago):

KMLI 170152Z 29005KT 10SM CLR 06/01 A3007 RMK AO2 SLP185 T00560011

Aviation forecast (TAF) for Quad City International Airport

Retrieved 2019-10-17 00:39 UTC (2 hours ago):

TAF KMLI 162337Z 1700/1724 30005KT P6SM BKN040 FM170700 28004KT P6SM SCT035 FM171200 VRB03KT P6SM FEW035